Time;durP1;ratioP1;P1;durP2;ratioP2;P2;SDS_P1;SDS_P2;PMS_P1;PMS_P2;Temp;Humidity;BMP_temperature;BMP_pressure;BME280_temperature;BME280_humidity;BME280_pressure;Samples;Min_cycle;Max_cycle;Signal;HPM_P1;HPM_P2
2022/10/07 04:46:50;;;;;;;9.90;5.03;;;;;;;6.89;96.59;101270.38;1733686;82;21578;-38
2022/10/07 04:49:17;;;;;;;33.63;7.87;;;;;;;6.99;96.55;101273.27;1713048;82;21023;-39
2022/10/07 04:51:44;;;;;;;11.18;4.92;;;;;;;7.07;96.86;101283.05;1741895;80;21054;-45
2022/10/07 04:54:11;;;;;;;18.85;5.78;;;;;;;7.15;96.92;101284.61;1737403;81;21034;-39
2022/10/07 04:56:40;;;;;;;19.52;5.28;;;;;;;7.19;96.96;101277.36;1699218;82;21031;-40
2022/10/07 04:59:07;;;;;;;9.58;4.33;;;;;;;7.24;96.95;101282.25;1701238;84;21518;-39
2022/10/07 05:01:36;;;;;;;10.45;4.70;;;;;;;7.27;97.17;101284.96;1709234;82;21530;-45
2022/10/07 05:04:03;;;;;;;16.77;6.83;;;;;;;7.32;97.27;101287.28;1735281;80;20937;-45
2022/10/07 05:06:32;;;;;;;8.15;4.28;;;;;;;7.37;97.57;101293.93;1711416;80;21070;-45
2022/10/07 05:08:59;;;;;;;20.15;5.00;;;;;;;7.45;98.08;101289.39;1732812;80;21436;-45
2022/10/07 05:11:28;;;;;;;14.63;5.35;;;;;;;7.57;98.37;101292.75;1744392;79;21046;-45
2022/10/07 05:13:57;;;;;;;10.72;4.40;;;;;;;7.71;98.71;101300.94;1701274;82;21587;-39
2022/10/07 05:16:24;;;;;;;14.18;5.25;;;;;;;7.88;99.04;101306.61;1732943;80;21054;-38
2022/10/07 05:18:51;;;;;;;8.10;4.12;;;;;;;8.02;99.30;101309.61;1751416;80;21876;-45
2022/10/07 05:21:18;;;;;;;10.05;5.00;;;;;;;8.11;99.43;101313.31;1739405;80;21609;-45
2022/10/07 05:23:46;;;;;;;9.38;4.60;;;;;;;8.16;99.61;101309.11;1732212;80;21573;-44
2022/10/07 05:26:14;;;;;;;8.00;5.12;;;;;;;8.25;100.00;101307.17;1728976;80;21524;-45
2022/10/07 05:28:47;;;;;;;8.23;5.17;;;;;;;8.35;100.00;101307.87;1741511;80;20973;-37
2022/10/07 05:31:15;;;;;;;15.43;6.67;;;;;;;8.51;100.00;101317.84;1713513;80;21088;-45
2022/10/07 05:33:44;;;;;;;11.08;5.62;;;;;;;8.64;100.00;101319.05;1735944;80;21502;-45
2022/10/07 05:36:11;;;;;;;18.75;6.60;;;;;;;8.76;100.00;101314.55;1730767;82;21577;-38
2022/10/07 05:38:40;;;;;;;14.83;5.83;;;;;;;8.90;100.00;101323.56;1730000;82;21574;-40
2022/10/07 05:41:09;;;;;;;10.38;5.20;;;;;;;9.06;100.00;101318.27;1696839;83;21103;-45
2022/10/07 05:43:40;;;;;;;7.80;5.15;;;;;;;9.23;100.00;101319.95;1733609;82;21313;-45
2022/10/07 05:46:11;;;;;;;14.93;6.50;;;;;;;9.41;100.00;101328.17;1716349;82;21111;-44
2022/10/07 05:48:39;;;;;;;12.18;5.78;;;;;;;9.57;100.00;101328.95;1717034;83;21581;-45
2022/10/07 05:51:08;;;;;;;15.53;7.03;;;;;;;9.76;100.00;101328.89;1697149;83;21606;-45
2022/10/07 05:53:34;;;;;;;14.93;6.65;;;;;;;9.99;100.00;101329.33;1715057;83;20988;-38
2022/10/07 05:56:05;;;;;;;7.95;5.67;;;;;;;10.20;100.00;101331.87;1700097;83;21051;-44
2022/10/07 05:58:37;;;;;;;11.73;6.30;;;;;;;10.41;100.00;101338.83;1709798;83;21511;-44
2022/10/07 06:01:05;;;;;;;10.10;6.05;;;;;;;10.63;100.00;101334.41;1668037;85;21070;-38
2022/10/07 06:03:32;;;;;;;11.15;6.30;;;;;;;10.85;100.00;101342.61;1714942;83;20963;-38
2022/10/07 06:05:59;;;;;;;7.20;5.92;;;;;;;11.04;100.00;101344.64;1716774;83;21032;-44
2022/10/07 06:08:26;;;;;;;10.00;6.58;;;;;;;11.25;100.00;101343.16;1716924;83;21575;-39
2022/10/07 06:13:42;;;;;;;9.38;7.20;;;;;;;11.63;100.00;101344.55;1650945;85;21020;-38
2022/10/07 06:16:10;;;;;;;10.13;6.80;;;;;;;11.84;100.00;101344.41;1615180;85;21125;-38
2022/10/07 06:18:40;;;;;;;12.65;6.78;;;;;;;12.02;100.00;101345.92;1646848;85;20989;-44
2022/10/07 06:21:07;;;;;;;10.85;7.95;;;;;;;12.19;100.00;101349.59;1646616;85;21096;-45
2022/10/07 06:23:35;;;;;;;9.38;6.67;;;;;;;12.37;100.00;101354.58;1650020;85;20997;-44
2022/10/07 06:26:06;;;;;;;14.13;7.17;;;;;;;12.54;100.00;101357.36;1650253;85;21084;-46
2022/10/07 06:28:40;;;;;;;9.20;7.28;;;;;;;12.71;100.00;101356.63;1607544;85;21056;-39
2022/10/07 06:31:15;;;;;;;11.03;6.90;;;;;;;12.92;100.00;101348.02;1581820;83;21150;-38
2022/10/07 06:33:51;;;;;;;10.10;6.80;;;;;;;13.13;100.00;101351.67;1626440;85;21401;-38
2022/10/07 06:36:27;;;;;;;8.73;6.67;;;;;;;13.30;100.00;101346.98;1648497;83;21085;-38
2022/10/07 06:38:56;;;;;;;13.93;6.65;;;;;;;13.48;100.00;101349.27;1652639;85;21050;-44
2022/10/07 06:41:25;;;;;;;7.67;5.90;;;;;;;13.60;100.00;101349.31;1651149;83;21873;-46
2022/10/07 06:43:59;;;;;;;13.43;6.70;;;;;;;13.73;100.00;101353.74;1655044;85;21037;-38
2022/10/07 06:47:23;;;;;;;13.32;7.15;;;;;;;13.85;100.00;101356.41;1606863;85;21180;-38
2022/10/07 06:50:26;;;;;;;;;;;;;;;13.99;100.00;101354.28;1678442;83;21040;-38
2022/10/07 06:52:54;;;;;;;9.65;6.05;;;;;;;14.20;99.62;101357.38;1675738;83;20156;-38
2022/10/07 06:55:36;;;;;;;11.88;5.85;;;;;;;14.31;97.81;101353.89;1679165;83;21092;-39
2022/10/07 06:58:03;;;;;;;10.60;6.03;;;;;;;14.42;96.08;101359.17;1657374;84;21513;-39
2022/10/07 07:00:30;;;;;;;9.13;6.15;;;;;;;14.51;95.53;101355.72;1675918;83;21444;-40
2022/10/07 07:03:00;;;;;;;8.28;5.47;;;;;;;14.60;94.88;101353.95;1675729;83;20987;-39
2022/10/07 07:05:37;;;;;;;6.75;5.20;;;;;;;14.71;94.08;101352.64;1674726;83;21464;-38
2022/10/07 07:11:35;;;;;;;11.73;5.60;;;;;;;14.85;90.95;101360.11;1654068;83;21020;-39
2022/10/07 07:14:18;;;;;;;7.37;5.12;;;;;;;14.88;90.19;101361.41;1685077;83;21814;-39
2022/10/07 07:17:17;;;;;;;7.35;5.45;;;;;;;14.93;89.79;101365.80;1689942;83;21040;-38
2022/10/07 07:19:46;;;;;;;6.28;4.85;;;;;;;15.00;89.67;101359.20;1683633;83;21025;-38
2022/10/07 07:22:12;;;;;;;7.55;5.15;;;;;;;15.07;89.20;101356.98;1672880;83;21165;-39
2022/10/07 07:24:40;;;;;;;8.55;5.30;;;;;;;15.12;88.52;101353.03;1673009;83;21919;-39
2022/10/07 07:27:10;;;;;;;9.18;5.75;;;;;;;15.20;88.31;101355.23;1684854;83;21626;-45
2022/10/07 07:29:37;;;;;;;6.97;5.30;;;;;;;15.28;87.86;101358.71;1630174;85;21003;-45
2022/10/07 07:32:05;;;;;;;5.80;4.65;;;;;;;15.35;86.86;101349.90;1685752;83;21118;-44
2022/10/07 07:34:36;;;;;;;6.87;5.12;;;;;;;15.41;87.09;101349.88;1686014;83;21580;-44
2022/10/07 07:37:03;;;;;;;6.40;4.87;;;;;;;15.51;86.29;101348.09;1673433;83;21517;-39
2022/10/07 07:39:33;;;;;;;5.37;4.50;;;;;;;15.56;85.47;101347.64;1674709;83;21008;-36
2022/10/07 07:42:08;;;;;;;9.93;5.00;;;;;;;15.60;84.93;101354.67;1673178;83;21452;-37
2022/10/07 07:44:37;;;;;;;12.05;4.70;;;;;;;15.66;84.74;101349.84;1675725;83;21494;-37
2022/10/07 07:47:07;;;;;;;8.23;5.22;;;;;;;15.73;84.23;101350.24;1689538;83;21116;-38
2022/10/07 07:49:36;;;;;;;8.45;4.67;;;;;;;15.81;84.24;101352.39;1703573;82;21187;-38
2022/10/07 07:52:04;;;;;;;9.43;4.22;;;;;;;15.92;83.94;101349.70;1657363;85;21058;-38
2022/10/07 07:54:33;;;;;;;8.53;4.30;;;;;;;16.03;83.43;101349.20;1697597;82;21832;-38
2022/10/07 07:56:59;;;;;;;6.10;4.20;;;;;;;16.14;82.43;101350.02;1700195;83;21063;-38
2022/10/07 07:59:30;;;;;;;7.10;4.75;;;;;;;16.22;81.45;101349.52;1697742;83;21658;-38
2022/10/07 08:01:57;;;;;;;6.22;3.50;;;;;;;16.27;80.79;101344.20;1702043;82;21004;-38
2022/10/07 08:04:24;;;;;;;6.87;4.65;;;;;;;16.34;80.63;101342.39;1699849;83;21324;-45
2022/10/07 08:06:57;;;;;;;8.23;4.37;;;;;;;16.43;79.76;101350.27;1680534;84;21114;-44
2022/10/07 08:09:28;;;;;;;8.70;4.17;;;;;;;16.49;79.65;101339.66;1666427;84;21329;-38
2022/10/07 08:11:56;;;;;;;6.87;3.60;;;;;;;16.58;79.21;101338.69;1700010;82;21097;-37
2022/10/07 08:14:24;;;;;;;6.08;3.70;;;;;;;16.68;78.35;101340.38;1699040;82;20945;-37
2022/10/07 08:16:54;;;;;;;7.95;3.77;;;;;;;16.76;77.75;101341.23;1700586;82;21584;-38
2022/10/07 08:19:20;;;;;;;4.58;3.40;;;;;;;16.84;77.00;101338.06;1699900;83;20987;-39
2022/10/07 08:21:47;;;;;;;5.25;3.70;;;;;;;16.92;76.44;101343.27;1699303;83;21042;-38
2022/10/07 08:24:16;;;;;;;8.35;3.50;;;;;;;16.98;76.79;101341.43;1700665;82;21038;-38
2022/10/07 08:26:46;;;;;;;5.95;3.10;;;;;;;17.08;76.24;101338.27;1697061;82;21095;-39
2022/10/07 08:29:14;;;;;;;4.58;3.35;;;;;;;17.20;75.38;101342.09;1701079;82;20996;-38
2022/10/07 08:31:41;;;;;;;5.37;3.40;;;;;;;17.29;74.68;101341.14;1702553;82;21016;-38
2022/10/07 08:34:09;;;;;;;6.65;3.20;;;;;;;17.34;74.77;101339.77;1702042;82;21555;-38
2022/10/07 08:36:35;;;;;;;7.80;4.22;;;;;;;17.39;73.95;101344.08;1698980;82;21044;-38
2022/10/07 08:39:03;;;;;;;5.58;3.77;;;;;;;17.44;73.20;101333.45;1700796;82;20945;-39
2022/10/07 08:41:57;;;;;;;5.12;3.85;;;;;;;17.47;71.98;101336.95;1703869;82;21687;-45
2022/10/07 08:44:31;;;;;;;4.62;3.00;;;;;;;17.47;71.74;101331.66;1681099;83;21389;-38
2022/10/07 08:47:15;;;;;;;5.10;2.72;;;;;;;17.52;71.27;101326.32;1695676;83;21069;-46
2022/10/07 08:50:06;;;;;;;6.00;2.83;;;;;;;17.58;71.21;101330.21;1699706;83;21579;-38
2022/10/07 08:52:54;;;;;;;7.08;3.02;;;;;;;17.66;70.85;101330.10;1696966;82;21063;-45
2022/10/07 08:55:47;;;;;;;7.85;2.75;;;;;;;17.72;69.91;101331.38;1684195;84;21021;-46
2022/10/07 08:58:43;;;;;;;7.55;2.77;;;;;;;17.73;69.53;101326.05;1695833;82;21110;-45
2022/10/07 09:01:45;;;;;;;9.05;2.95;;;;;;;17.78;69.75;101328.65;1697781;82;21103;-46
2022/10/07 09:04:42;;;;;;;10.20;3.10;;;;;;;17.83;69.80;101321.52;1680221;82;21472;-39
2022/10/07 09:07:17;;;;;;;5.53;2.60;;;;;;;17.91;68.96;101320.08;1696470;82;21378;-46
2022/10/07 09:09:55;;;;;;;8.60;3.22;;;;;;;17.91;66.11;101319.63;1696799;82;21016;-38
2022/10/07 09:12:26;;;;;;;4.12;2.47;;;;;;;17.87;65.62;101315.75;1695909;82;21331;-46
2022/10/07 09:14:55;;;;;;;9.15;3.08;;;;;;;17.84;65.55;101314.45;1697906;82;21020;-45
2022/10/07 09:17:33;;;;;;;4.58;2.35;;;;;;;17.82;65.29;101313.16;1696250;82;21020;-39
2022/10/07 09:20:05;;;;;;;8.55;2.80;;;;;;;17.83;65.23;101306.97;1697718;83;21540;-46
2022/10/07 09:22:37;;;;;;;19.40;4.15;;;;;;;17.87;65.31;101307.36;1677014;83;21019;-39
2022/10/07 09:25:19;;;;;;;5.00;2.70;;;;;;;17.90;65.16;101302.45;1699315;82;21022;-46
2022/10/07 09:27:47;;;;;;;5.33;2.10;;;;;;;17.95;64.26;101306.79;1669235;85;21043;-47
2022/10/07 09:30:14;;;;;;;3.20;1.90;;;;;;;18.01;63.84;101313.32;1697960;82;21056;-46
2022/10/07 09:32:46;;;;;;;7.20;2.27;;;;;;;18.10;63.85;101307.48;1697993;82;21155;-46
2022/10/07 09:35:16;;;;;;;9.18;2.10;;;;;;;18.19;63.63;101313.48;1697384;82;21523;-38
2022/10/07 09:38:34;;;;;;;4.28;2.20;;;;;;;18.29;62.88;101315.55;1678374;82;21093;-46
2022/10/07 09:42:20;;;;;;;8.48;2.15;;;;;;;18.32;61.78;101308.87;1698839;82;21582;-46
2022/10/07 09:45:46;;;;;;;5.30;2.10;;;;;;;18.32;60.95;101305.80;1694655;82;21044;-46
2022/10/07 09:49:08;;;;;;;2.72;2.10;;;;;;;18.37;60.46;101304.37;1727290;80;21920;-55
2022/10/07 09:52:13;;;;;;;;;;;;;;;18.37;59.48;101301.73;1737600;80;21522;-45
2022/10/07 09:55:54;;;;;;;4.47;1.80;;;;;;;18.51;59.16;101306.82;1737667;80;20155;-46
2022/10/07 09:59:00;;;;;;;4.37;1.77;;;;;;;18.51;59.16;101306.82;1736939;80;21042;-45
2022/10/07 10:02:30;;;;;;;2.98;1.40;;;;;;;18.69;56.38;101295.06;1734802;80;21054;-45
2022/10/07 10:05:33;;;;;;;2.62;1.45;;;;;;;18.92;56.55;101298.16;1736364;80;20990;-46
2022/10/07 10:08:38;;;;;;;6.05;2.10;;;;;;;19.17;54.11;101293.26;1737900;80;20966;-46
2022/10/07 10:11:08;;;;;;;4.03;1.90;;;;;;;19.35;52.02;101281.40;1736291;82;21133;-47
2022/10/07 10:13:39;;;;;;;2.42;1.80;;;;;;;19.68;51.21;101284.28;1730826;82;21533;-47
2022/10/07 10:16:29;;;;;;;2.50;1.30;;;;;;;20.06;49.69;101281.64;1731601;82;21480;-46
2022/10/07 10:19:02;;;;;;;4.65;1.50;;;;;;;20.56;49.31;101279.53;1732475;80;21727;-39
2022/10/07 10:21:39;;;;;;;3.25;1.30;;;;;;;21.17;47.62;101277.89;1733777;80;21038;-40
2022/10/07 10:24:16;;;;;;;4.97;1.70;;;;;;;21.73;45.52;101274.48;1736582;82;20983;-39
2022/10/07 10:27:03;;;;;;;2.40;1.07;;;;;;;22.11;44.63;101264.45;1709683;80;21515;-39
2022/10/07 10:29:49;;;;;;;4.53;1.30;;;;;;;22.44;43.02;101263.34;1699922;83;21039;-40
2022/10/07 10:32:28;;;;;;;5.12;1.40;;;;;;;22.77;41.77;101261.28;1737768;80;21046;-39
2022/10/07 10:35:19;;;;;;;2.58;1.00;;;;;;;23.21;39.77;101261.98;1731323;81;21042;-39
2022/10/07 10:38:22;;;;;;;2.30;1.20;;;;;;;23.63;38.63;101263.03;1704886;82;21464;-39
2022/10/07 10:41:06;;;;;;;2.45;1.07;;;;;;;23.89;38.12;101260.69;1621588;87;21135;-39
2022/10/07 10:44:04;;;;;;;5.05;1.40;;;;;;;24.16;35.76;101263.15;1612427;87;21013;-39
2022/10/07 10:47:03;;;;;;;5.80;1.20;;;;;;;24.29;34.63;101265.70;1617348;87;21092;-38
2022/10/07 10:49:47;;;;;;;2.10;1.22;;;;;;;24.26;34.19;101260.51;1621609;87;21008;-40
2022/10/07 10:52:36;;;;;;;4.17;1.45;;;;;;;24.14;33.37;101259.68;1619753;87;21638;-41
2022/10/07 10:55:23;;;;;;;4.15;1.50;;;;;;;23.99;34.42;101253.61;1620036;87;21119;-48
2022/10/07 10:58:24;;;;;;;6.67;1.55;;;;;;;23.97;35.65;101253.69;1577944;88;21079;-38
2022/10/07 11:01:39;;;;;;;3.40;1.45;;;;;;;24.11;36.37;101252.64;1576842;89;21165;-39
2022/10/07 11:04:29;;;;;;;2.87;1.57;;;;;;;24.22;36.41;101246.85;1584442;89;21427;-39
2022/10/07 11:07:05;;;;;;;1.98;1.32;;;;;;;24.19;35.43;101246.13;1577215;89;21062;-47
2022/10/07 11:09:42;;;;;;;4.47;1.40;;;;;;;23.91;35.74;101244.58;1577803;89;21471;-47
2022/10/07 11:12:17;;;;;;;3.47;1.55;;;;;;;23.56;36.52;101233.93;1578039;89;21067;-47
2022/10/07 11:14:48;;;;;;;4.33;1.67;;;;;;;23.22;36.16;101225.01;1619481;85;21611;-43
2022/10/07 11:17:15;;;;;;;2.20;1.00;;;;;;;22.77;36.13;101229.27;1674990;84;21464;-38
2022/10/07 11:19:52;;;;;;;4.00;1.10;;;;;;;22.26;36.22;101236.81;1674585;84;21588;-39
2022/10/07 11:22:24;;;;;;;4.22;1.40;;;;;;;21.81;36.63;101242.30;1645934;86;21040;-39
2022/10/07 11:24:53;;;;;;;2.42;1.10;;;;;;;21.03;36.77;101239.27;1644196;86;21005;-39
2022/10/07 11:27:29;;;;;;;3.42;1.17;;;;;;;21.03;36.77;101239.27;1645589;86;21081;-46
2022/10/07 11:30:01;;;;;;;3.90;1.85;;;;;;;20.81;37.46;101233.67;1642521;87;21651;-46
2022/10/07 11:33:07;;;;;;;2.92;1.40;;;;;;;20.57;38.60;101231.23;1636275;87;21010;-39
2022/10/07 11:35:38;;;;;;;3.62;1.55;;;;;;;20.39;39.01;101232.09;1662868;85;21026;-39
2022/10/07 11:38:15;;;;;;;7.60;1.30;;;;;;;20.22;39.79;101232.97;1655097;85;21088;-46
2022/10/07 11:40:52;;;;;;;12.70;1.87;;;;;;;20.07;40.57;101238.23;1676030;85;21042;-46
2022/10/07 11:43:45;;;;;;;8.55;2.27;;;;;;;19.91;40.73;101229.75;1645409;85;21015;-45
2022/10/07 11:46:39;;;;;;;5.33;1.30;;;;;;;19.81;41.13;101224.23;1675110;85;21014;-39
2022/10/07 11:49:20;;;;;;;4.80;1.20;;;;;;;19.79;41.21;101230.50;1639165;87;21104;-38
2022/10/07 11:52:01;;;;;;;2.72;1.55;;;;;;;19.76;41.44;101227.44;1670144;85;21035;-46
2022/10/07 11:54:40;;;;;;;3.02;1.27;;;;;;;19.75;40.68;101227.02;1673489;85;20987;-46
2022/10/07 11:57:18;;;;;;;2.62;1.45;;;;;;;19.66;41.88;101227.26;1675600;85;21461;-46
2022/10/07 11:59:50;;;;;;;6.45;1.30;;;;;;;19.60;42.76;101224.29;1685988;84;21031;-39
2022/10/07 12:02:37;;;;;;;4.60;1.43;;;;;;;19.59;42.71;101222.97;1719631;82;21030;-39
2022/10/07 12:05:06;;;;;;;5.12;1.40;;;;;;;19.56;41.92;101222.56;1737881;82;20955;-39
2022/10/07 12:07:37;;;;;;;5.90;1.20;;;;;;;19.56;42.23;101219.05;1733530;82;21034;-45
2022/10/07 12:10:20;;;;;;;3.60;1.12;;;;;;;19.57;42.09;101219.45;1734543;82;20998;-46
2022/10/07 12:12:50;;;;;;;8.10;1.55;;;;;;;19.57;40.59;101220.78;1744928;82;21074;-38
2022/10/07 12:15:39;;;;;;;2.50;1.10;;;;;;;19.53;39.58;101219.97;1740694;82;21006;-39
2022/10/07 12:18:16;;;;;;;2.05;0.95;;;;;;;19.48;39.06;101220.55;1735344;82;21569;-46
2022/10/07 12:20:58;;;;;;;5.05;1.10;;;;;;;19.41;38.00;101211.82;1735006;81;21601;-39
2022/10/07 12:23:36;;;;;;;2.62;1.20;;;;;;;19.40;38.63;101221.16;1737000;82;21010;-46
2022/10/07 12:26:29;;;;;;;5.85;1.80;;;;;;;19.39;38.83;101214.11;1736242;82;21534;-46
2022/10/07 12:28:57;;;;;;;2.67;1.12;;;;;;;19.33;39.14;101210.27;1641123;86;21024;-38
2022/10/07 12:31:31;;;;;;;2.12;0.98;;;;;;;19.28;38.87;101213.01;1639618;87;21399;-46
2022/10/07 12:34:08;;;;;;;1.77;1.00;;;;;;;19.28;38.09;101214.79;1602744;89;21040;-47
2022/10/07 12:36:39;;;;;;;8.53;1.57;;;;;;;19.27;38.20;101205.09;1628864;87;21985;-39
2022/10/07 12:39:12;;;;;;;3.10;1.10;;;;;;;19.24;39.29;101209.98;1616295;87;21037;-46
2022/10/07 12:41:44;;;;;;;2.55;1.15;;;;;;;19.26;40.51;101212.63;1633329;87;21045;-46
2022/10/07 12:44:40;;;;;;;3.47;1.80;;;;;;;19.26;40.85;101206.00;1653388;86;21446;-46
2022/10/07 12:47:23;;;;;;;3.70;1.80;;;;;;;19.24;40.79;101205.14;1633421;87;21533;-46
2022/10/07 12:49:57;;;;;;;7.30;1.90;;;;;;;19.28;41.01;101201.52;1624736;88;21024;-45
2022/10/07 12:52:35;;;;;;;5.75;1.37;;;;;;;19.33;39.89;101205.83;1630028;87;21521;-45
2022/10/07 12:55:09;;;;;;;7.22;2.15;;;;;;;19.39;40.25;101204.82;1639648;87;20950;-46
2022/10/07 12:57:39;;;;;;;6.12;1.30;;;;;;;19.49;40.52;101204.17;1638631;87;21070;-46
2022/10/07 13:00:23;;;;;;;2.50;1.65;;;;;;;19.49;40.43;101197.54;1650913;87;21002;-37
2022/10/07 13:03:12;;;;;;;5.65;1.40;;;;;;;19.52;41.01;101206.28;1651226;87;21026;-45
2022/10/07 13:06:23;;;;;;;4.87;1.22;;;;;;;19.63;39.37;101203.42;1683385;82;21047;-45
2022/10/07 13:09:18;;;;;;;3.37;1.42;;;;;;;19.61;39.44;101197.29;1745944;82;21090;-46
2022/10/07 13:12:11;;;;;;;5.45;1.80;;;;;;;19.52;39.69;101200.97;1746382;82;21137;-46
2022/10/07 13:15:09;;;;;;;4.12;1.07;;;;;;;19.47;39.86;101195.34;1746410;82;21039;-39
